Station info - map view · info · telemetry · weather · raw · status · beacons · messages · bulletins · browse · moving · my account
Callsign, ship name or locator: Clear       
It is possible to search using wildcards (*?) after a prefix. Example: OH*
APRS station N247TD - show graphs
Map loading...
Comment: KC9PR
Mic-E message: En route
Last status: TinyTrak3 v1.1
Location: 32°56.43' N 97°25.13' W - locator EM12GW95RR - show map - static map
3.8 miles Southeast bearing 122° from Pecan Acres, Tarrant County, Texas, United States [?]
4.7 miles Southwest bearing 240° from Haslet, Tarrant County, Texas, United States
15.9 miles North bearing 339° from Fort Worth, Tarrant County, Texas, United States
37.1 miles West bearing 287° from Dallas, Dallas County, Texas, United States
Last position: 2019-12-08 15:17:16 EST (3d 7h30m ago)
2019-12-08 14:17:16 CST local time at Pecan Acres, United States [?]
Altitude: 1155 ft
Course: 167°
Speed: 70 MPH
Last path: N247TD>SR5V4S via WIDE1-1,WIDE2-1,qAR,W5NGU-3 (good)
Positions stored: 18234
Packet rate: 89 seconds between packets on average during 4356 seconds.
Stations near current position of N247TD - show more
callsign distance last heard - EST      callsign distance last heard - EST
N111BN1.6 miles 149°2019-11-30 17:43:13 FW22062.1 miles 328°2019-12-11 22:44:08
dw37532.5 miles 232°2019-12-11 22:43:28 AF5EH B2.8 miles 119°2019-12-11 21:00:44
AF5EH-B2.8 miles 119°2019-12-11 21:00:45 AF5EH C2.8 miles 119°2019-12-11 21:50:50
AF5EH-C2.8 miles 119°2019-12-11 11:43:59 AF5EH D2.8 miles 119°2019-12-11 21:57:46
AF5EH-D2.8 miles 119°2019-12-11 21:57:47 AF5EH2.8 miles 119°2019-11-12 22:36:14
KG5KUF3.8 miles 284°2019-11-29 12:50:30 EW54614.3 miles 194°2019-12-11 22:45:49
W5BYT-R4.5 miles 59°2019-11-27 17:16:54 K5IJD6.0 miles 141°2019-12-05 10:51:12
N5OGQ B6.1 miles 110°2019-12-11 22:35:29 N5OGQ-B6.1 miles 110°2019-12-11 22:35:39
KE5ZHV-56.2 miles 117°2019-12-11 22:23:43 KG5AHL-56.2 miles 118°2019-12-11 22:46:32
WA5TXI-96.3 miles 349°2019-12-11 20:52:29 KK6EOL-86.4 miles 157°2019-11-20 20:27:43
Stations which heard N247TD directly on radio –
callsign pkts first heard - EST last heard longest (tx => rx) longest at - EST
KC5EZZ-3 27 2019-12-01 13:53:53 2019-12-08 14:44:56 DM81XS > DM91SQ 92.5 miles 93° 2019-12-08 13:58:45
N5FAZ-2 4 2019-12-08 12:36:16 2019-12-08 12:41:14 DM61VQ > DM61TS 12.4 miles 303° 2019-12-08 12:41:14
N5SOR-1 1 2019-12-08 13:43:50 2019-12-08 13:43:50 DM81NM > DM80NR 55.3 miles 183° 2019-12-08 13:43:50
W5NGU-3 2 2019-12-08 15:14:42 2019-12-08 15:17:16 EM12GV > EM13KF 28.4 miles 41° 2019-12-08 15:14:42
DARKCN 1 2019-12-08 13:20:00 2019-12-08 13:20:00 DM71VC > DM72PB 75.0 miles 335° 2019-12-08 13:20:00
ELPASO 13 2019-12-01 17:01:38 2019-12-08 12:51:41 DM71CI > DM61SS 49.8 miles 307° 2019-12-08 12:51:41
KC5EZZ-10 23 2019-12-01 13:34:29 2019-12-08 14:50:52 EM02NN > EM01BG 105.4 miles 212° 2019-12-08 14:50:52
W5NCD-15 1 2019-12-01 11:42:47 2019-12-01 11:42:47 EM01WI > EM11JI 51.6 miles 91° 2019-12-01 11:42:47
N5AG-5 1 2019-12-08 14:59:48 2019-12-08 14:59:48 EM02UR > EM01OT 66.1 miles 203° 2019-12-08 14:59:48
WX5II-6 3 2019-12-01 13:40:27 2019-12-01 13:49:23 EM00HS > EM00LB 53.6 miles 157° 2019-12-01 13:49:23
AA5JM-1 3 2019-12-01 13:41:56 2019-12-01 14:02:48 EM00AT > EM01ID 45.1 miles 59° 2019-12-01 14:02:48
WD5GIC-3 5 2019-12-01 11:22:47 2019-12-08 14:58:19 EM11AQ > EM12CJ 49.5 miles 12° 2019-12-01 11:35:21
KS5S 1 2019-12-01 11:12:59 2019-12-01 11:12:59 EM12FR > EM12HK 23.6 miles 147° 2019-12-01 11:12:59
K5UTD 2 2019-12-01 11:08:30 2019-12-01 11:11:29 EM12FS > EM12OX 48.7 miles 72° 2019-12-01 11:11:29
KA5GIL-1 1 2019-12-01 12:01:28 2019-12-01 12:01:28 EM00TO > EM00UP 4.9 miles 49° 2019-12-01 12:01:28
N5LEA 14 2019-12-08 13:40:50 2019-12-08 14:04:40 DM91DU > DM82KQ 102.7 miles 303° 2019-12-08 14:04:40
KE5WVC-2 6 2019-12-01 11:47:16 2019-12-01 11:54:43 EM00UU > EM11FA 45.8 miles 74° 2019-12-01 11:54:43
N5PSP-2 13 2019-12-01 15:04:05 2019-12-08 13:57:13 DM81RQ > DM81UT 20.8 miles 62° 2019-12-01 15:37:45
ESTLND 2 2019-12-08 14:40:27 2019-12-08 14:46:24 EM02FK > EM02NL 41.2 miles 84° 2019-12-08 14:40:27
N5QHO-1 4 2019-12-01 14:08:45 2019-12-01 14:19:11 DM90VU > DM90QU 24.8 miles 274° 2019-12-01 14:08:45
KG5LAA 1 2019-12-01 11:56:12 2019-12-01 11:56:12 EM00TS > EM00VS 6.9 miles 91° 2019-12-01 11:56:12
NEELP 2 2019-12-01 17:00:58 2019-12-08 12:47:13 DM71AM > DM61TW 38.5 miles 319° 2019-12-08 12:47:13
N0PFE-1 9 2019-12-01 11:57:42 2019-12-01 13:32:59 EM00OQ > EM00UL 34.5 miles 117° 2019-12-01 13:32:59
WA5JRS-10 1 2019-12-08 15:08:44 2019-12-08 15:08:44 EM12CU > EM12KN 43.6 miles 116° 2019-12-08 15:08:44
KF5BYG-10 3 2019-12-01 11:17:27 2019-12-01 11:21:55 EM12CH > EM12IN 34.5 miles 57° 2019-12-01 11:21:55
WD5DDH-10 3 2019-12-01 11:06:03 2019-12-08 15:16:36 EM12GW > EM12MM 40.0 miles 136° 2019-12-01 11:07:01
K5JCE 1 2019-12-01 11:24:55 2019-12-01 11:24:55 EM12CE > EM12HI 28.0 miles 62° 2019-12-01 11:24:55
K5BWD-12 2 2019-12-08 14:28:32 2019-12-08 14:44:55 DM92UF > EM01MP 86.8 miles 118° 2019-12-08 14:28:32
N5QHO-3 11 2019-12-01 13:55:21 2019-12-01 14:38:29 EM00ET > DM90KQ 87.8 miles 266° 2019-12-01 13:55:21
KG5HTH-10 8 2019-12-01 11:10:00 2019-12-08 15:04:16 EM12FU > EM02WI 48.1 miles 227° 2019-12-01 11:10:00
N5PSP-1 2 2019-12-01 15:07:04 2019-12-01 15:08:33 DM81XT > DM81XX 11.2 miles 350° 2019-12-01 15:07:04
KK5MV-1 2 2019-12-08 14:35:58 2019-12-08 14:38:58 EM02CI > EM02IE 30.6 miles 111° 2019-12-08 14:35:58
N5DUP-3 1 2019-12-08 14:37:27 2019-12-08 14:37:27 EM02DI > EM02CH 5.8 miles 212° 2019-12-08 14:37:27
AC5V-1 8 2019-12-08 15:01:18 2019-12-08 15:16:58 EM02VR > EM12EX 37.9 miles 62° 2019-12-08 15:01:18
WO5R-1 1 2019-12-01 11:33:52 2019-12-01 11:33:52 EM11AS > EM01QP 40.6 miles 258° 2019-12-01 11:33:52

Only position packets which were originated by the station are shown here. The range statistics show some extra long hops, because some digipeaters do not correctly add themselves to the digipeater path. Please check the raw packets.
About this site
This page shows real-time information collected from the Automatic Position Reporting System Internet network (APRS-IS). APRS is used by amateur (ham) radio operators to transmit real-time position information, weather data, telemetry and messages over the radio. A vehicle equipped with a GPS receiver, a VHF transmitter or HF transceiver and a small computer device called a tracker transmits it's location, speed and course in a small data packet, which is then received by a nearby iGate receiving site which forwards the packet on the Internet. Systems connected to the Internet can send information on the APRS-IS without a radio transmitter, or collect and display information transmitted anywhere in the world.
User guide · FAQ · Blog · Discussion group · Linking to aprs.fi · AIS sites · Service status · Database statistics · Advertising on aprs.fi · Technical details · API · Change log · Planned changes · Credits and thanks · Terms Of Service · iPhone/iPad APRS